Time;durP1;ratioP1;P1;durP2;ratioP2;P2;SDS_P1;SDS_P2;PMS_P1;PMS_P2;Temp;Humidity;BMP_temperature;BMP_pressure;BME280_temperature;BME280_humidity;BME280_pressure;Samples;Min_cycle;Max_cycle;Signal;HPM_P1;HPM_P2
2022/02/21 00:00:56;;;;;;;;;;;6.60;99.90;;;;;;5057356;28;19957;-82
2022/02/21 00:03:22;;;;;;;;;;;6.60;99.90;;;;;;5074082;28;19966;-83
2022/02/21 00:05:51;;;;;;;;;;;6.60;99.90;;;;;;5078301;28;19916;-83
2022/02/21 00:08:17;;;;;;;;;;;6.70;99.90;;;;;;5059655;28;20431;-83
2022/02/21 00:10:42;;;;;;;;;;;6.70;99.90;;;;;;5071276;28;19912;-83
2022/02/21 00:13:08;;;;;;;;;;;6.70;99.90;;;;;;5059584;28;20538;-83
2022/02/21 00:15:33;;;;;;;;;;;6.70;99.90;;;;;;5077228;28;19920;-83
2022/02/21 00:17:59;;;;;;;;;;;6.70;99.90;;;;;;5083642;28;19912;-83
2022/02/21 00:20:24;;;;;;;;;;;6.60;99.90;;;;;;5095815;28;19908;-83
2022/02/21 00:22:50;;;;;;;;;;;6.60;99.90;;;;;;5071584;28;19978;-82
2022/02/21 00:25:16;;;;;;;;;;;6.60;99.90;;;;;;5078258;28;20284;-83
2022/02/21 00:27:41;;;;;;;;;;;6.60;99.90;;;;;;5090282;28;19989;-83
2022/02/21 00:30:07;;;;;;;;;;;6.60;99.90;;;;;;5071407;28;19980;-83
2022/02/21 00:32:33;;;;;;;;;;;6.70;99.90;;;;;;5090222;28;19955;-83
2022/02/21 00:34:58;;;;;;;;;;;6.80;99.90;;;;;;5081205;28;19917;-83
2022/02/21 00:37:24;;;;;;;;;;;6.80;99.90;;;;;;5065713;28;19926;-83
2022/02/21 00:39:50;;;;;;;;;;;6.90;99.90;;;;;;5066370;28;19913;-82
2022/02/21 00:42:21;;;;;;;;;;;7.00;76.50;;;;;;5062097;28;19921;-83
2022/02/21 00:44:48;;;;;;;;;;;7.00;99.90;;;;;;5089023;28;19908;-83
2022/02/21 00:47:14;;;;;;;;;;;6.90;99.90;;;;;;5080599;28;19920;-83
2022/02/21 00:49:39;;;;;;;;;;;6.80;1.00;;;;;;5068303;28;19915;-83
2022/02/21 00:52:05;;;;;;;;;;;6.50;50.90;;;;;;5067925;28;20361;-83
2022/02/21 00:54:30;;;;;;;;;;;6.30;99.90;;;;;;5106845;28;20433;-83
2022/02/21 00:56:56;;;;;;;;;;;6.20;1.00;;;;;;5083741;28;20330;-83
2022/02/21 00:59:21;;;;;;;;;;;6.10;99.90;;;;;;5077809;28;19919;-82
2022/02/21 01:01:47;;;;;;;;;;;6.10;1.00;;;;;;5078240;28;19983;-83
2022/02/21 01:04:12;;;;;;;;;;;6.10;99.90;;;;;;5057457;28;19920;-82
2022/02/21 01:06:38;;;;;;;;;;;6.10;99.90;;;;;;5083331;28;19916;-82
2022/02/21 01:09:03;;;;;;;;;;;6.20;67.70;;;;;;5082849;28;19912;-83
2022/02/21 01:11:30;;;;;;;;;;;6.20;1.00;;;;;;5065437;28;19943;-83
2022/02/21 01:13:59;;;;;;;;;;;6.20;1.00;;;;;;5063364;28;19912;-83
2022/02/21 01:16:25;;;;;;;;;;;6.20;19.90;;;;;;5077581;28;19912;-82
2022/02/21 01:18:51;;;;;;;;;;;6.20;99.90;;;;;;5081637;28;19916;-83
2022/02/21 01:21:16;;;;;;;;;;;6.30;18.20;;;;;;5096083;28;19995;-83
2022/02/21 01:23:42;;;;;;;;;;;6.20;1.00;;;;;;5072263;28;19913;-83
2022/02/21 01:26:07;;;;;;;;;;;6.20;1.00;;;;;;5070741;28;19916;-82
2022/02/21 01:28:33;;;;;;;;;;;6.20;99.90;;;;;;5072506;28;19916;-83
2022/02/21 01:30:58;;;;;;;;;;;6.20;1.00;;;;;;5099379;28;19954;-82
2022/02/21 01:33:25;;;;;;;;;;;6.20;1.00;;;;;;5066212;28;19912;-83
2022/02/21 01:35:51;;;;;;;;;;;6.10;1.00;;;;;;5080819;28;19920;-83
2022/02/21 01:38:16;;;;;;;;;;;6.10;1.00;;;;;;5091319;28;19912;-83
2022/02/21 01:40:42;;;;;;;;;;;6.10;99.90;;;;;;5080433;28;19919;-83
2022/02/21 01:43:07;;;;;;;;;;;6.10;99.90;;;;;;5061983;28;20017;-83
2022/02/21 01:45:33;;;;;;;;;;;6.10;1.00;;;;;;5074679;28;19916;-83
2022/02/21 01:47:58;;;;;;;;;;;6.10;1.00;;;;;;5085043;28;20291;-82
2022/02/21 01:50:24;;;;;;;;;;;6.10;1.00;;;;;;5086777;28;20571;-81
2022/02/21 01:52:49;;;;;;;;;;;6.10;1.00;;;;;;5076316;28;19923;-82
2022/02/21 01:55:15;;;;;;;;;;;6.10;99.90;;;;;;5076136;28;19924;-82
2022/02/21 01:57:41;;;;;;;;;;;6.10;99.90;;;;;;5062804;28;19912;-82
2022/02/21 02:00:07;;;;;;;;;;;6.00;99.90;;;;;;5043911;28;19909;-82
2022/02/21 02:02:33;;;;;;;;;;;6.00;99.90;;;;;;5075542;28;20130;-82
2022/02/21 02:04:58;;;;;;;;;;;6.00;99.90;;;;;;5097363;28;19919;-82
2022/02/21 02:07:24;;;;;;;;;;;6.00;99.90;;;;;;5087759;28;19916;-83
2022/02/21 02:09:49;;;;;;;;;;;6.00;99.90;;;;;;5079218;28;19999;-82
2022/02/21 02:12:15;;;;;;;;;;;5.90;99.90;;;;;;5088328;28;19944;-82
2022/02/21 02:14:41;;;;;;;;;;;5.90;99.90;;;;;;5080115;28;19909;-82
2022/02/21 02:17:08;;;;;;;;;;;5.90;99.90;;;;;;5076268;28;19916;-82
2022/02/21 02:19:33;;;;;;;;;;;5.90;99.90;;;;;;5073758;28;19917;-82
2022/02/21 02:22:07;;;;;;;;;;;5.90;99.90;;;;;;5104324;28;19913;-83
2022/02/21 02:24:35;;;;;;;;;;;5.90;99.90;;;;;;5094592;28;19916;-83
2022/02/21 02:27:00;;;;;;;;;;;5.90;99.90;;;;;;5102212;28;19923;-82
2022/02/21 02:29:25;;;;;;;;;;;5.90;99.90;;;;;;5079377;28;19908;-82
2022/02/21 02:31:51;;;;;;;;;;;5.80;99.90;;;;;;5094176;28;19912;-82
2022/02/21 02:34:17;;;;;;;;;;;5.70;99.90;;;;;;5064366;28;19996;-81
2022/02/21 02:36:44;;;;;;;;;;;5.60;99.90;;;;;;5061052;28;19909;-82
2022/02/21 02:39:12;;;;;;;;;;;5.60;99.90;;;;;;5075977;28;19956;-82
2022/02/21 02:41:38;;;;;;;;;;;5.50;99.90;;;;;;5062625;28;19913;-81
2022/02/21 02:44:03;;;;;;;;;;;5.40;99.90;;;;;;5095693;28;19916;-83
2022/02/21 02:46:29;;;;;;;;;;;5.30;99.90;;;;;;5094869;28;19965;-82
2022/02/21 02:48:54;;;;;;;;;;;5.30;99.90;;;;;;5077583;28;20042;-82
2022/02/21 02:51:20;;;;;;;;;;;5.30;99.90;;;;;;5086290;28;19917;-82
2022/02/21 02:53:45;;;;;;;;;;;5.20;99.90;;;;;;5100971;28;19912;-81
2022/02/21 02:56:10;;;;;;;;;;;5.20;99.90;;;;;;5079051;28;19935;-82
2022/02/21 02:58:36;;;;;;;;;;;5.20;99.90;;;;;;5060510;28;19936;-82
2022/02/21 03:01:01;;;;;;;;;;;5.20;99.90;;;;;;5071927;28;19934;-80
2022/02/21 03:03:27;;;;;;;;;;;5.20;99.90;;;;;;5056297;28;20003;-82
2022/02/21 03:05:54;;;;;;;;;;;5.20;1.00;;;;;;5071515;28;19908;-82
2022/02/21 03:08:19;;;;;;;;;;;5.30;1.00;;;;;;5081303;28;20422;-82
2022/02/21 03:10:44;;;;;;;;;;;5.30;1.00;;;;;;5075385;28;19944;-81
2022/02/21 03:13:10;;;;;;;;;;;5.30;1.00;;;;;;5069022;28;19916;-83
2022/02/21 03:15:35;;;;;;;;;;;5.30;99.90;;;;;;5103220;28;20357;-82
2022/02/21 03:18:01;;;;;;;;;;;5.30;99.90;;;;;;5059854;28;19908;-82
2022/02/21 03:20:26;;;;;;;;;;;5.30;99.90;;;;;;5077415;28;19912;-82
2022/02/21 03:22:52;;;;;;;;;;;5.30;99.90;;;;;;5093328;28;19908;-82
2022/02/21 03:25:17;;;;;;;;;;;5.30;99.90;;;;;;5076554;28;19998;-82
2022/02/21 03:27:44;;;;;;;;;;;5.40;99.90;;;;;;5085542;28;19916;-81
2022/02/21 03:30:10;;;;;;;;;;;5.50;99.90;;;;;;5077887;28;19958;-82
2022/02/21 03:32:36;;;;;;;;;;;5.50;99.90;;;;;;5098436;28;19908;-82
2022/02/21 03:35:01;;;;;;;;;;;5.40;99.90;;;;;;5070613;28;19958;-82
2022/02/21 03:37:27;;;;;;;;;;;5.30;99.90;;;;;;5077767;28;19916;-82
2022/02/21 03:39:52;;;;;;;;;;;4.90;99.90;;;;;;5098070;28;20334;-82
2022/02/21 03:42:18;;;;;;;;;;;4.40;1.00;;;;;;5078645;28;19968;-82
2022/02/21 03:44:43;;;;;;;;;;;4.20;8.00;;;;;;5081112;28;19916;-82
2022/02/21 03:47:08;;;;;;;;;;;4.10;99.90;;;;;;5081379;28;19973;-81
2022/02/21 03:49:34;;;;;;;;;;;3.90;1.00;;;;;;5096986;28;19908;-82
2022/02/21 03:52:00;;;;;;;;;;;3.80;99.90;;;;;;5092168;28;19916;-82
2022/02/21 03:54:25;;;;;;;;;;;3.80;99.90;;;;;;5090108;28;20392;-82
2022/02/21 03:56:51;;;;;;;;;;;3.80;99.90;;;;;;5066571;28;19909;-82
2022/02/21 03:59:16;;;;;;;;;;;3.80;99.90;;;;;;5084871;28;20211;-82
2022/02/21 04:01:42;;;;;;;;;;;3.80;99.90;;;;;;5062402;28;19958;-81
2022/02/21 04:04:07;;;;;;;;;;;3.80;99.90;;;;;;5082203;28;19966;-82
2022/02/21 04:06:32;;;;;;;;;;;3.80;99.90;;;;;;5070483;28;20346;-82
2022/02/21 04:08:58;;;;;;;;;;;3.80;99.90;;;;;;5066174;28;19958;-81
2022/02/21 04:11:23;;;;;;;;;;;3.90;45.20;;;;;;5042043;28;19916;-82
2022/02/21 04:13:49;;;;;;;;;;;4.00;1.00;;;;;;5085468;28;20269;-82
2022/02/21 04:16:14;;;;;;;;;;;4.10;99.90;;;;;;5065435;28;19912;-81
2022/02/21 04:18:40;;;;;;;;;;;4.20;99.90;;;;;;5102121;28;19944;-82
2022/02/21 04:21:05;;;;;;;;;;;4.30;1.00;;;;;;5077956;28;19913;-82
2022/02/21 04:23:31;;;;;;;;;;;4.40;99.90;;;;;;5081202;28;19919;-81
2022/02/21 04:25:56;;;;;;;;;;;4.50;1.00;;;;;;5083048;28;20380;-82
2022/02/21 04:28:22;;;;;;;;;;;4.50;99.90;;;;;;5063736;28;19913;-82
2022/02/21 04:30:47;;;;;;;;;;;4.60;99.90;;;;;;5086376;28;19908;-80
2022/02/21 04:33:13;;;;;;;;;;;4.70;99.90;;;;;;5062440;28;20433;-82
2022/02/21 04:35:39;;;;;;;;;;;4.80;1.00;;;;;;5099783;28;20003;-82
2022/02/21 04:38:04;;;;;;;;;;;4.80;1.00;;;;;;5100458;28;19931;-82
2022/02/21 04:40:30;;;;;;;;;;;4.90;1.00;;;;;;5077603;28;19921;-82
2022/02/21 04:42:56;;;;;;;;;;;4.90;99.90;;;;;;5068759;28;20669;-82
2022/02/21 04:45:22;;;;;;;;;;;5.00;99.90;;;;;;5080159;28;19973;-81
2022/02/21 04:47:48;;;;;;;;;;;5.00;99.90;;;;;;5075841;28;19943;-82
2022/02/21 04:50:14;;;;;;;;;;;5.10;99.90;;;;;;5065844;28;19916;-82
2022/02/21 04:52:42;;;;;;;;;;;5.10;99.90;;;;;;5061729;28;19936;-81
2022/02/21 04:55:09;;;;;;;;;;;5.20;63.60;;;;;;5082480;28;19916;-82
2022/02/21 04:57:35;;;;;;;;;;;5.20;54.80;;;;;;5069732;28;19927;-81
2022/02/21 05:00:00;;;;;;;;;;;5.30;35.10;;;;;;5066264;28;19948;-82
2022/02/21 05:02:26;;;;;;;;;;;5.30;42.60;;;;;;5094724;28;19916;-81
2022/02/21 05:04:52;;;;;;;;;;;5.30;38.50;;;;;;5087177;28;19912;-82
2022/02/21 05:07:17;;;;;;;;;;;5.30;14.70;;;;;;5082130;28;19923;-82
2022/02/21 05:09:43;;;;;;;;;;;5.30;1.00;;;;;;5072812;28;19931;-82
2022/02/21 05:12:09;;;;;;;;;;;5.30;1.00;;;;;;5082912;28;19935;-82
2022/02/21 05:14:34;;;;;;;;;;;5.30;1.00;;;;;;5063489;28;19908;-82
2022/02/21 05:17:00;;;;;;;;;;;5.30;1.00;;;;;;5079906;28;19920;-82
2022/02/21 05:19:25;;;;;;;;;;;5.30;1.00;;;;;;5078421;28;19958;-82
2022/02/21 05:21:51;;;;;;;;;;;5.30;1.00;;;;;;5094116;28;20369;-82
2022/02/21 05:24:16;;;;;;;;;;;5.20;1.00;;;;;;5081065;28;19909;-82
2022/02/21 05:26:42;;;;;;;;;;;5.20;1.00;;;;;;5074693;28;20362;-82
2022/02/21 05:29:07;;;;;;;;;;;5.20;1.00;;;;;;5071707;28;19915;-81
2022/02/21 05:31:33;;;;;;;;;;;5.10;1.00;;;;;;5071889;28;19946;-82
2022/02/21 05:33:58;;;;;;;;;;;5.10;1.00;;;;;;5094923;28;19915;-82
2022/02/21 05:36:23;;;;;;;;;;;5.10;1.00;;;;;;5075000;28;19912;-81
2022/02/21 05:38:49;;;;;;;;;;;5.10;1.00;;;;;;5066451;28;19947;-81
2022/02/21 05:41:14;;;;;;;;;;;5.10;1.00;;;;;;5060217;28;19953;-81
2022/02/21 05:43:40;;;;;;;;;;;5.10;1.00;;;;;;5077570;28;19913;-81
2022/02/21 05:46:05;;;;;;;;;;;5.10;1.00;;;;;;5080614;28;19908;-84
2022/02/21 05:48:31;;;;;;;;;;;5.10;1.00;;;;;;5082618;28;19957;-81
2022/02/21 05:50:57;;;;;;;;;;;5.10;1.00;;;;;;5077801;28;19919;-81
2022/02/21 05:53:22;;;;;;;;;;;5.20;1.00;;;;;;5101586;28;19917;-82
2022/02/21 05:55:48;;;;;;;;;;;5.20;1.00;;;;;;5062990;28;19956;-81
2022/02/21 05:58:13;;;;;;;;;;;5.30;1.00;;;;;;5081421;28;19916;-81
2022/02/21 06:00:39;;;;;;;;;;;5.30;1.00;;;;;;5064725;28;19952;-82
2022/02/21 06:03:04;;;;;;;;;;;5.30;1.00;;;;;;5109190;28;19908;-82
2022/02/21 06:05:30;;;;;;;;;;;5.20;1.00;;;;;;5080402;28;20339;-82
2022/02/21 06:07:55;;;;;;;;;;;5.00;1.00;;;;;;5080360;28;19916;-82
2022/02/21 06:10:20;;;;;;;;;;;4.90;27.50;;;;;;5076744;28;20399;-82
2022/02/21 06:12:46;;;;;;;;;;;4.90;99.90;;;;;;5079792;28;19940;-82
2022/02/21 06:15:11;;;;;;;;;;;4.80;99.90;;;;;;5085242;28;19912;-83
2022/02/21 06:17:37;;;;;;;;;;;4.50;1.00;;;;;;5079124;28;19919;-82
2022/02/21 06:20:03;;;;;;;;;;;4.40;99.90;;;;;;5083882;28;19919;-81
2022/02/21 06:22:28;;;;;;;;;;;4.30;1.00;;;;;;5066840;28;19912;-82
2022/02/21 06:24:54;;;;;;;;;;;4.30;99.90;;;;;;5056167;28;20044;-82
2022/02/21 06:27:19;;;;;;;;;;;4.20;99.90;;;;;;5102624;28;20444;-82
2022/02/21 06:29:45;;;;;;;;;;;4.20;99.90;;;;;;5066298;28;19911;-81
2022/02/21 06:32:10;;;;;;;;;;;4.20;99.90;;;;;;5076696;28;19909;-82
2022/02/21 06:34:36;;;;;;;;;;;4.30;1.00;;;;;;5072545;28;20364;-81
2022/02/21 06:37:01;;;;;;;;;;;4.30;99.90;;;;;;5074023;28;19912;-84
2022/02/21 06:39:27;;;;;;;;;;;4.40;1.00;;;;;;5077080;28;19920;-85
2022/02/21 06:41:52;;;;;;;;;;;4.60;1.00;;;;;;5059960;28;19948;-85
2022/02/21 06:44:17;;;;;;;;;;;4.70;1.00;;;;;;5079672;28;19919;-84
2022/02/21 06:46:43;;;;;;;;;;;4.80;99.90;;;;;;5076468;28;20378;-85
2022/02/21 06:49:10;;;;;;;;;;;4.80;99.90;;;;;;5073248;28;19912;-85
2022/02/21 06:51:35;;;;;;;;;;;4.90;99.90;;;;;;5075106;28;19919;-85
2022/02/21 06:54:05;;;;;;;;;;;5.00;74.20;;;;;;5055355;28;19912;-84
2022/02/21 06:56:31;;;;;;;;;;;5.10;23.10;;;;;;5077891;28;20024;-85
2022/02/21 06:58:56;;;;;;;;;;;5.10;1.00;;;;;;5068068;28;19956;-84
2022/02/21 07:01:24;;;;;;;;;;;5.20;1.00;;;;;;5082324;28;20401;-85
2022/02/21 07:03:50;;;;;;;;;;;5.30;1.00;;;;;;5091144;28;19919;-86
2022/02/21 07:06:15;;;;;;;;;;;5.30;1.00;;;;;;5077949;28;20357;-86
2022/02/21 07:08:41;;;;;;;;;;;5.30;1.00;;;;;;5080153;28;19913;-87
2022/02/21 07:11:08;;;;;;;;;;;5.40;1.00;;;;;;5076365;28;20322;-88
2022/02/21 07:13:34;;;;;;;;;;;5.50;1.00;;;;;;5091658;28;19912;-87
2022/02/21 07:16:00;;;;;;;;;;;5.60;1.00;;;;;;5079103;28;19913;-88
2022/02/21 07:18:25;;;;;;;;;;;5.70;1.00;;;;;;5063610;28;19941;-88
2022/02/21 07:20:51;;;;;;;;;;;5.80;1.00;;;;;;5058598;28;19916;-88
2022/02/21 07:23:16;;;;;;;;;;;5.90;1.00;;;;;;5057898;28;19920;-86
2022/02/21 07:25:42;;;;;;;;;;;6.00;1.00;;;;;;5073741;28;19966;-86
2022/02/21 07:28:07;;;;;;;;;;;6.00;1.00;;;;;;5071414;28;19912;-88
2022/02/21 07:30:33;;;;;;;;;;;6.20;1.00;;;;;;5095867;28;19923;-85
2022/02/21 07:32:59;;;;;;;;;;;6.20;1.00;;;;;;5088260;28;20372;-84
2022/02/21 07:35:25;;;;;;;;;;;6.10;1.00;;;;;;5069320;28;19912;-86
2022/02/21 07:37:51;;;;;;;;;;;6.10;1.00;;;;;;5059471;28;19924;-86
2022/02/21 07:40:16;;;;;;;;;;;6.00;1.00;;;;;;5068774;28;19912;-86
2022/02/21 07:42:47;;;;;;;;;;;6.10;1.00;;;;;;5078511;28;19908;-86
2022/02/21 07:45:12;;;;;;;;;;;6.10;1.00;;;;;;5071231;28;21333;-86
2022/02/21 07:47:42;;;;;;;;;;;6.40;1.00;;;;;;5100950;28;19963;-85
2022/02/21 07:50:07;;;;;;;;;;;6.60;1.00;;;;;;5096226;28;20285;-85
2022/02/21 07:52:33;;;;;;;;;;;6.70;1.00;;;;;;5085818;28;19916;-86
2022/02/21 07:54:58;;;;;;;;;;;7.30;1.00;;;;;;5080558;28;19916;-86
2022/02/21 07:57:24;;;;;;;;;;;9.10;1.00;;;;;;5081785;28;19908;-87
2022/02/21 07:59:49;;;;;;;;;;;9.20;1.00;;;;;;5063110;28;19966;-88
2022/02/21 08:02:15;;;;;;;;;;;9.90;1.00;;;;;;5056659;28;19912;-87
2022/02/21 08:04:40;;;;;;;;;;;9.90;1.00;;;;;;5075891;28;20345;-87
2022/02/21 08:07:06;;;;;;;;;;;11.90;1.00;;;;;;5078719;28;19916;-87
2022/02/21 08:09:31;;;;;;;;;;;12.10;1.00;;;;;;5075963;28;20295;-87
2022/02/21 08:11:57;;;;;;;;;;;12.60;1.00;;;;;;5069118;28;19912;-86
2022/02/21 08:14:22;;;;;;;;;;;12.90;1.00;;;;;;5070356;28;19959;-87
2022/02/21 08:16:48;;;;;;;;;;;13.30;1.00;;;;;;5057701;28;19977;-87
2022/02/21 08:19:13;;;;;;;;;;;14.70;1.00;;;;;;5059183;28;19913;-87
2022/02/21 08:21:38;;;;;;;;;;;16.30;1.00;;;;;;5076435;28;19913;-88
2022/02/21 08:24:04;;;;;;;;;;;17.80;1.00;;;;;;5078979;28;19935;-87
2022/02/21 08:26:30;;;;;;;;;;;18.90;1.00;;;;;;5067643;28;19959;-87
2022/02/21 08:28:56;;;;;;;;;;;19.40;1.00;;;;;;5095664;28;19917;-87
2022/02/21 08:31:21;;;;;;;;;;;19.30;1.00;;;;;;5092328;28;20277;-88
2022/02/21 08:33:47;;;;;;;;;;;19.70;1.00;;;;;;5078354;28;19935;-88
2022/02/21 08:36:12;;;;;;;;;;;19.60;1.00;;;;;;5076047;28;19920;-87
2022/02/21 08:38:38;;;;;;;;;;;19.70;1.00;;;;;;5080055;28;19912;-87
2022/02/21 08:41:03;;;;;;;;;;;20.20;1.00;;;;;;5098743;28;19923;-88
2022/02/21 08:43:29;;;;;;;;;;;20.40;1.00;;;;;;5060961;28;19972;-88
2022/02/21 08:45:55;;;;;;;;;;;20.50;1.00;;;;;;5077231;28;19912;-87
2022/02/21 08:48:21;;;;;;;;;;;20.50;1.00;;;;;;5056662;28;19916;-89
2022/02/21 08:50:46;;;;;;;;;;;21.50;1.00;;;;;;5057589;28;20283;-88
2022/02/21 08:53:12;;;;;;;;;;;21.50;99.90;;;;;;5052016;28;19920;-88
2022/02/21 08:55:37;;;;;;;;;;;21.00;99.90;;;;;;5052960;28;19924;-88
2022/02/21 08:58:03;;;;;;;;;;;19.10;99.90;;;;;;5072608;28;19947;-87
2022/02/21 09:00:29;;;;;;;;;;;18.50;99.90;;;;;;5085931;28;19920;-88
2022/02/21 09:02:54;;;;;;;;;;;19.30;99.90;;;;;;5068304;28;20443;-87
2022/02/21 09:05:23;;;;;;;;;;;20.20;99.90;;;;;;5076145;28;19912;-87
2022/02/21 09:07:48;;;;;;;;;;;18.80;99.90;;;;;;5096933;28;19985;-88
2022/02/21 09:10:14;;;;;;;;;;;18.20;99.90;;;;;;5075136;28;19912;-88
2022/02/21 09:12:39;;;;;;;;;;;18.90;99.90;;;;;;5105661;28;19920;-88
2022/02/21 09:15:06;;;;;;;;;;;19.50;99.90;;;;;;5051101;28;20277;-88
2022/02/21 09:17:32;;;;;;;;;;;19.00;99.90;;;;;;5056697;28;19912;-88
2022/02/21 09:19:57;;;;;;;;;;;18.70;99.90;;;;;;5055769;28;19991;-88
2022/02/21 09:22:23;;;;;;;;;;;20.00;99.90;;;;;;5071796;28;19970;-87
2022/02/21 09:24:49;;;;;;;;;;;19.30;99.90;;;;;;5069267;28;19952;-87
2022/02/21 09:27:16;;;;;;;;;;;16.80;99.90;;;;;;5070854;28;19969;-87
2022/02/21 09:29:44;;;;;;;;;;;14.30;99.90;;;;;;5061474;28;20345;-87
2022/02/21 09:32:10;;;;;;;;;;;12.80;99.90;;;;;;5051787;28;20346;-87
2022/02/21 09:34:36;;;;;;;;;;;11.90;99.90;;;;;;5065873;28;19916;-87
2022/02/21 09:37:01;;;;;;;;;;;11.00;99.90;;;;;;5065346;28;19916;-87
2022/02/21 09:39:26;;;;;;;;;;;10.40;99.90;;;;;;5058254;28;19912;-87
2022/02/21 09:41:52;;;;;;;;;;;9.90;99.90;;;;;;5055808;28;19923;-86
2022/02/21 09:44:18;;;;;;;;;;;9.50;99.90;;;;;;5068062;28;20327;-87
2022/02/21 09:46:46;;;;;;;;;;;9.20;99.90;;;;;;5071373;28;19917;-86
2022/02/21 09:49:11;;;;;;;;;;;9.10;99.90;;;;;;5051755;28;20047;-86
2022/02/21 09:51:37;;;;;;;;;;;8.90;99.90;;;;;;5050596;28;20356;-87
2022/02/21 09:54:02;;;;;;;;;;;8.90;99.90;;;;;;5053484;28;19925;-86
2022/02/21 09:56:28;;;;;;;;;;;8.70;99.90;;;;;;5097000;28;20280;-86
2022/02/21 09:58:55;;;;;;;;;;;8.70;99.90;;;;;;5085141;28;19917;-86
2022/02/21 10:01:22;;;;;;;;;;;8.70;99.90;;;;;;5068557;28;19912;-87
2022/02/21 10:03:47;;;;;;;;;;;8.60;99.90;;;;;;5066579;28;19965;-87
2022/02/21 10:06:14;;;;;;;;;;;8.70;99.90;;;;;;5053657;28;20377;-87
2022/02/21 10:09:01;;;;;;;;;;;8.60;99.90;;;;;;5073047;28;19959;-87
2022/02/21 10:11:30;;;;;;;;;;;8.50;99.90;;;;;;5053373;28;19947;-87
2022/02/21 10:13:57;;;;;;;;;;;8.30;99.90;;;;;;5070136;28;19974;-87
2022/02/21 10:16:23;;;;;;;;;;;8.10;99.90;;;;;;5075541;28;19924;-87
2022/02/21 10:18:48;;;;;;;;;;;7.90;99.90;;;;;;5051302;28;20292;-87
2022/02/21 10:21:14;;;;;;;;;;;7.60;99.90;;;;;;5058786;28;19923;-87
2022/02/21 10:23:42;;;;;;;;;;;7.40;99.90;;;;;;5059941;28;19912;-87
2022/02/21 10:26:08;;;;;;;;;;;7.20;99.90;;;;;;5061388;28;19919;-87
2022/02/21 10:28:33;;;;;;;;;;;7.10;99.90;;;;;;5057508;28;19916;-87
2022/02/21 10:31:08;;;;;;;;;;;7.00;1.00;;;;;;5070952;28;19920;-87
2022/02/21 10:33:33;;;;;;;;;;;6.90;1.00;;;;;;5075386;28;19928;-87
2022/02/21 10:35:59;;;;;;;;;;;7.00;1.00;;;;;;5063880;28;19925;-88
2022/02/21 10:38:38;;;;;;;;;;;6.90;1.00;;;;;;5054473;28;20061;-87
2022/02/21 10:41:04;;;;;;;;;;;6.90;1.00;;;;;;5070373;28;19912;-86
2022/02/21 10:43:32;;;;;;;;;;;6.70;1.00;;;;;;5069431;28;20003;-87
2022/02/21 10:45:58;;;;;;;;;;;6.70;1.00;;;;;;5070803;28;19917;-88
2022/02/21 10:48:24;;;;;;;;;;;6.60;1.00;;;;;;5049985;28;20308;-88
2022/02/21 10:51:00;;;;;;;;;;;6.60;1.00;;;;;;5053366;28;20430;-88
2022/02/21 10:53:36;;;;;;;;;;;6.70;1.00;;;;;;5054460;28;19913;-87
2022/02/21 10:56:01;;;;;;;;;;;6.80;1.00;;;;;;5069752;28;19916;-87
2022/02/21 10:58:27;;;;;;;;;;;6.90;1.00;;;;;;5077579;28;19919;-87
2022/02/21 11:00:53;;;;;;;;;;;7.00;1.00;;;;;;5060445;28;19920;-87
2022/02/21 11:03:19;;;;;;;;;;;7.30;1.00;;;;;;5087681;28;19991;-86
2022/02/21 11:05:45;;;;;;;;;;;7.50;1.00;;;;;;5054704;28;20284;-86
2022/02/21 11:08:11;;;;;;;;;;;7.40;1.00;;;;;;5072958;28;19912;-87
2022/02/21 11:10:36;;;;;;;;;;;7.30;1.00;;;;;;5061994;28;19916;-86
2022/02/21 11:13:04;;;;;;;;;;;7.10;1.00;;;;;;5059675;28;19917;-85
2022/02/21 11:15:29;;;;;;;;;;;6.90;1.00;;;;;;5070105;28;19917;-86
2022/02/21 11:17:55;;;;;;;;;;;6.80;99.90;;;;;;5095345;28;19915;-87
2022/02/21 11:20:21;;;;;;;;;;;6.60;99.90;;;;;;5070331;28;19920;-86
2022/02/21 11:22:46;;;;;;;;;;;6.60;99.90;;;;;;5054096;28;19913;-86
2022/02/21 11:25:15;;;;;;;;;;;6.50;84.90;;;;;;5051549;28;19922;-85
2022/02/21 11:27:43;;;;;;;;;;;6.40;1.00;;;;;;5090682;28;19927;-86
2022/02/21 11:30:09;;;;;;;;;;;6.30;99.90;;;;;;5062473;28;20011;-86
2022/02/21 11:32:35;;;;;;;;;;;6.30;1.00;;;;;;5072104;28;19959;-86
2022/02/21 11:35:16;;;;;;;;;;;6.30;1.00;;;;;;5076989;28;19913;-86
2022/02/21 11:37:42;;;;;;;;;;;6.30;1.00;;;;;;5065953;28;20384;-86
2022/02/21 11:40:08;;;;;;;;;;;6.20;99.90;;;;;;5050279;28;19920;-86
2022/02/21 11:42:34;;;;;;;;;;;6.30;99.90;;;;;;5058204;28;20351;-86
2022/02/21 11:45:01;;;;;;;;;;;6.30;1.00;;;;;;5072180;28;19912;-86
2022/02/21 11:47:31;;;;;;;;;;;6.30;1.00;;;;;;5072717;28;19924;-86
2022/02/21 11:49:56;;;;;;;;;;;6.30;99.90;;;;;;5065084;28;20436;-86
2022/02/21 11:52:28;;;;;;;;;;;6.30;99.90;;;;;;5048518;28;19978;-86
2022/02/21 11:54:54;;;;;;;;;;;6.30;1.00;;;;;;5083645;28;19931;-86
2022/02/21 11:57:19;;;;;;;;;;;6.40;99.90;;;;;;5071944;28;19912;-86
2022/02/21 11:59:45;;;;;;;;;;;6.40;1.00;;;;;;5073505;28;20280;-86
2022/02/21 12:02:15;;;;;;;;;;;6.40;1.00;;;;;;5063501;28;20345;-86
2022/02/21 12:04:54;;;;;;;;;;;6.40;9.90;;;;;;5075023;28;20324;-86
2022/02/21 12:07:24;;;;;;;;;;;6.40;1.00;;;;;;5060270;28;19965;-87
2022/02/21 12:10:13;;;;;;;;;;;6.40;1.00;;;;;;5075024;28;19940;-86
2022/02/21 12:12:48;;;;;;;;;;;6.50;1.00;;;;;;5053845;28;20334;-85
2022/02/21 12:15:14;;;;;;;;;;;6.50;99.90;;;;;;5084027;28;19913;-86
2022/02/21 12:17:39;;;;;;;;;;;6.50;99.90;;;;;;5071223;28;19927;-86
2022/02/21 12:20:24;;;;;;;;;;;6.60;99.90;;;;;;5070114;28;19913;-85
2022/02/21 12:23:05;;;;;;;;;;;6.50;99.90;;;;;;5086741;28;20040;-86
2022/02/21 12:25:31;;;;;;;;;;;6.60;99.90;;;;;;5094466;28;19940;-86
2022/02/21 12:28:19;;;;;;;;;;;6.60;99.90;;;;;;5074614;28;19951;-87
2022/02/21 12:30:51;;;;;;;;;;;6.60;21.70;;;;;;5045266;28;19912;-86
2022/02/21 12:33:23;;;;;;;;;;;6.60;50.30;;;;;;5070623;28;19912;-87
2022/02/21 12:35:53;;;;;;;;;;;6.70;99.90;;;;;;5058167;28;20262;-85
2022/02/21 12:38:18;;;;;;;;;;;6.60;1.00;;;;;;5059612;28;19912;-86
2022/02/21 12:40:59;;;;;;;;;;;6.70;99.90;;;;;;5069199;28;19919;-87
2022/02/21 12:43:42;;;;;;;;;;;6.60;99.90;;;;;;5092009;28;19913;-87
2022/02/21 12:46:07;;;;;;;;;;;6.60;99.90;;;;;;5088927;28;20270;-86
2022/02/21 12:48:36;;;;;;;;;;;6.60;99.90;;;;;;5061396;28;19919;-86
2022/02/21 12:51:02;;;;;;;;;;;6.60;99.90;;;;;;5059346;28;19909;-86
2022/02/21 12:53:27;;;;;;;;;;;6.60;99.90;;;;;;5064896;28;19920;-85
2022/02/21 12:55:57;;;;;;;;;;;6.80;99.90;;;;;;5073912;28;20261;-85
2022/02/21 12:58:33;;;;;;;;;;;6.80;99.90;;;;;;5058751;28;19920;-86
2022/02/21 13:01:00;;;;;;;;;;;6.80;99.90;;;;;;5063130;28;19917;-85
2022/02/21 13:03:29;;;;;;;;;;;6.70;99.90;;;;;;5052307;28;20051;-86
2022/02/21 13:06:00;;;;;;;;;;;6.70;99.90;;;;;;5062835;28;19908;-86
2022/02/21 13:08:38;;;;;;;;;;;6.60;99.90;;;;;;5068893;28;19923;-86
2022/02/21 13:11:04;;;;;;;;;;;6.70;99.90;;;;;;5067723;28;19948;-86
2022/02/21 13:13:29;;;;;;;;;;;6.70;99.90;;;;;;5057573;28;19920;-86
2022/02/21 13:15:55;;;;;;;;;;;6.90;99.90;;;;;;5073261;28;20317;-85
2022/02/21 13:18:21;;;;;;;;;;;7.00;99.90;;;;;;5080935;28;19920;-86
2022/02/21 13:20:46;;;;;;;;;;;7.20;99.90;;;;;;5097622;28;19912;-87
2022/02/21 13:23:12;;;;;;;;;;;7.50;1.00;;;;;;5061368;28;19944;-86
2022/02/21 13:25:38;;;;;;;;;;;7.70;99.90;;;;;;5086675;28;19913;-86
2022/02/21 13:28:13;;;;;;;;;;;7.70;99.90;;;;;;5087452;28;20363;-87
2022/02/21 13:30:39;;;;;;;;;;;7.60;5.80;;;;;;5052975;28;20427;-86
2022/02/21 13:33:10;;;;;;;;;;;7.60;99.90;;;;;;5058644;28;19912;-86
2022/02/21 13:35:36;;;;;;;;;;;7.50;99.90;;;;;;5056819;28;19912;-86
2022/02/21 13:38:01;;;;;;;;;;;7.40;1.00;;;;;;5071903;28;19993;-86
2022/02/21 13:40:27;;;;;;;;;;;7.40;54.20;;;;;;5073633;28;19909;-87
2022/02/21 13:42:52;;;;;;;;;;;7.40;99.90;;;;;;5072932;28;19913;-87
2022/02/21 13:45:24;;;;;;;;;;;7.30;99.90;;;;;;5062534;28;20007;-86
2022/02/21 13:47:56;;;;;;;;;;;7.20;99.90;;;;;;5070239;28;19959;-86
2022/02/21 13:50:40;;;;;;;;;;;7.20;99.90;;;;;;5056247;28;19909;-86
2022/02/21 13:53:06;;;;;;;;;;;7.20;99.90;;;;;;5053940;28;19913;-86
2022/02/21 13:55:37;;;;;;;;;;;7.20;1.00;;;;;;5051585;28;19984;-87
2022/02/21 13:58:05;;;;;;;;;;;7.20;1.00;;;;;;5079746;28;20023;-86
2022/02/21 14:00:50;;;;;;;;;;;7.20;1.00;;;;;;5063033;28;19987;-87
2022/02/21 14:03:17;;;;;;;;;;;7.20;1.00;;;;;;5052285;28;19920;-86
2022/02/21 14:05:55;;;;;;;;;;;7.20;1.00;;;;;;5054872;28;19913;-86
2022/02/21 14:08:21;;;;;;;;;;;7.20;1.00;;;;;;5068985;28;19924;-86
2022/02/21 14:10:57;;;;;;;;;;;7.20;1.00;;;;;;5055009;28;19943;-87
2022/02/21 14:13:25;;;;;;;;;;;7.10;1.00;;;;;;5062578;28;19916;-87
2022/02/21 14:15:55;;;;;;;;;;;7.30;1.00;;;;;;5072507;28;19927;-86
2022/02/21 14:18:21;;;;;;;;;;;7.30;1.00;;;;;;5072508;28;19913;-86
2022/02/21 14:20:46;;;;;;;;;;;7.40;1.00;;;;;;5059609;28;19912;-87
2022/02/21 14:23:12;;;;;;;;;;;7.50;1.00;;;;;;5067726;28;20301;-87
2022/02/21 14:25:37;;;;;;;;;;;7.50;1.00;;;;;;5055419;28;20342;-86
2022/02/21 14:28:03;;;;;;;;;;;7.60;1.00;;;;;;5067655;28;19999;-87
2022/02/21 14:30:29;;;;;;;;;;;7.70;1.00;;;;;;5072747;28;19912;-87